createdAt,value
2022-08-07T00:08:56.059Z,100
2022-08-07T00:18:56.636Z,100
2022-08-07T00:28:57.139Z,100
2022-08-07T00:38:56.969Z,100
2022-08-07T00:48:57.496Z,100
2022-08-07T00:58:58.443Z,100
2022-08-07T01:08:59.456Z,100
2022-08-07T01:19:00.137Z,100
2022-08-07T01:29:01.036Z,100
2022-08-07T01:39:01.364Z,100
2022-08-07T01:49:02.264Z,100
2022-08-07T01:59:02.188Z,100
2022-08-07T02:09:03.718Z,100
2022-08-07T02:19:05.462Z,100
2022-08-07T02:29:04.193Z,100
2022-08-07T02:39:09.365Z,100
2022-08-07T02:59:05.005Z,100
2022-08-07T03:09:05.729Z,100
2022-08-07T03:19:05.894Z,100
2022-08-07T03:29:10.387Z,100
2022-08-07T03:39:07.505Z,100
2022-08-07T03:49:08.135Z,100
2022-08-07T03:59:12.890Z,100
2022-08-07T04:09:15.545Z,100
2022-08-07T04:29:10.955Z,100
2022-08-07T04:39:10.635Z,100
2022-08-07T04:49:14.996Z,100
2022-08-07T05:00:07.719Z,100
2022-08-07T05:09:12.247Z,100
2022-08-07T05:19:12.931Z,100
2022-08-07T05:29:13.097Z,100
2022-08-07T05:40:05.136Z,100
2022-08-07T05:49:14.388Z,100
2022-08-07T05:59:14.573Z,100
2022-08-07T06:09:15.200Z,100
2022-08-07T06:19:17.738Z,100
2022-08-07T06:29:16.545Z,100
2022-08-07T06:40:14.173Z,100
2022-08-07T06:49:18.143Z,100
2022-08-07T07:00:10.997Z,100
2022-08-07T07:19:54.989Z,100
2022-08-07T07:39:19.540Z,100
2022-08-07T08:09:22.675Z,100
2022-08-07T08:39:22.907Z,100
2022-08-07T08:49:32.649Z,100
2022-08-07T08:59:23.377Z,97
2022-08-07T09:19:44.908Z,91
2022-08-07T09:59:29.819Z,81
2022-08-07T10:09:34.521Z,83
2022-08-07T10:19:37.566Z,82
2022-08-07T10:39:41.789Z,83
2022-08-07T10:49:45.483Z,82
2022-08-07T10:59:30.275Z,80
2022-08-07T11:10:06.875Z,80
2022-08-07T11:19:30.709Z,79
2022-08-07T11:29:41.691Z,81
2022-08-07T11:39:39.884Z,79
2022-08-07T11:49:50.982Z,79
2022-08-07T12:00:08.604Z,79
2022-08-07T12:09:33.889Z,78
2022-08-07T12:19:35.445Z,77
2022-08-07T12:29:41.885Z,76
2022-08-07T12:39:43.440Z,78
2022-08-07T12:49:49.175Z,77
2022-08-07T12:59:37.095Z,77
2022-08-07T13:10:18.734Z,76
2022-08-07T13:19:46.435Z,77
2022-08-07T13:29:41.384Z,77
2022-08-07T13:39:49.885Z,78
2022-08-07T13:50:32.254Z,78
2022-08-07T13:59:40.761Z,77
2022-08-07T14:10:01.121Z,77
2022-08-07T14:20:41.615Z,77
2022-08-07T14:40:14.849Z,76
2022-08-07T14:49:56.273Z,76
2022-08-07T15:00:04.094Z,77
2022-08-07T15:30:03.820Z,78
2022-08-07T15:39:56.768Z,78
2022-08-07T15:50:03.639Z,79
2022-08-07T15:59:45.857Z,79
2022-08-07T16:09:46.568Z,80
2022-08-07T16:19:58.565Z,78
2022-08-07T16:30:08.097Z,78
2022-08-07T16:39:49.650Z,78
2022-08-07T16:50:19.883Z,79
2022-08-07T16:59:50.338Z,80
2022-08-07T17:10:05.728Z,81
2022-08-07T17:30:13.317Z,82
2022-08-07T17:39:53.231Z,83
2022-08-07T17:59:54.283Z,85
2022-08-07T18:21:05.536Z,88
2022-08-07T18:30:04.737Z,89
2022-08-07T18:40:05.028Z,89
2022-08-07T18:50:06.688Z,91
2022-08-07T18:59:59.571Z,91
2022-08-07T19:09:59.314Z,93
2022-08-07T19:20:04.850Z,93
2022-08-07T19:30:59.818Z,94
2022-08-07T20:00:08.717Z,98
2022-08-07T20:30:12.554Z,100
2022-08-07T20:40:31.939Z,100
2022-08-07T20:50:13.637Z,100
2022-08-07T21:00:14.041Z,100
2022-08-07T21:00:19.420Z,100
2022-08-07T21:20:27.024Z,100
2022-08-07T21:30:23.541Z,100
2022-08-07T21:40:21.921Z,100
2022-08-07T21:50:22.167Z,100
2022-08-07T22:00:24.757Z,100
2022-08-07T22:20:23.929Z,100
2022-08-07T22:30:26.527Z,100
2022-08-07T22:40:24.045Z,100
2022-08-07T22:50:28.954Z,100
2022-08-07T23:00:28.315Z,100
2022-08-07T23:10:36.165Z,100
2022-08-07T23:20:40.829Z,100
2022-08-07T23:30:36.530Z,100
2022-08-07T23:40:27.019Z,100
2022-08-07T23:50:27.587Z,100
